aviador You're here:

PABL Decoded Metar

BUCKLAND in AK, USA
Report Time2017-09-22 10:56:00
UTC Time2017-09-22 11:46:08
Flight Rules vfr VFR
Wind320° at 06 kt
W.Decomp.*RWY 29: 5.8 kt HW 1.6 kt RCW
W.Rank320° ranks 3
Current wind is below 320° avg. (8.2)
Visibility9999 m
Phenomena:N/A
Clouds:Overcast 090 Hf
Expected CloudBase > 800 ft AGL from Temp-Dew spread
Ceiling9,000 ft
Temp03°C (ISA -12)
Dew Point01°C (87% RH)
AAT-1.0°C
QNH1010 hPa
Density Alt-1,237 ft
Elevation23 ft
Report Wrong Elevation
Raw Report
PABL 221056Z AUTO 32006KT 10SM OVC090 03/01 A2983 RMK AO2 SLP104
T00280011=

Extra information for PABL:More info

Airport Information Weather charts Add Link Nearby Venues Social comments

AIRNAV info for PABL